Time;durP1;ratioP1;P1;durP2;ratioP2;P2;SDS_P1;SDS_P2;PMS_P1;PMS_P2;Temp;Humidity;BMP_temperature;BMP_pressure;BME280_temperature;BME280_humidity;BME280_pressure;Samples;Min_cycle;Max_cycle;Signal;HPM_P1;HPM_P2
2021/08/12 04:16:39;;;;;;;11.60;6.50;;;;;;;15.10;100.00;99148.59;5354302;23;20520;-71
2021/08/12 04:19:04;;;;;;;8.52;6.75;;;;;;;15.07;100.00;99148.66;4898083;29;20029;-71
2021/08/12 04:21:31;;;;;;;8.00;6.90;;;;;;;15.08;100.00;99155.59;4898116;29;20044;-71
2021/08/12 04:23:56;;;;;;;12.25;7.20;;;;;;;15.12;100.00;99157.22;4898264;29;20029;-70
2021/08/12 04:26:27;;;;;;;9.55;6.65;;;;;;;15.10;100.00;99153.81;4898160;29;20041;-71
2021/08/12 04:28:52;;;;;;;10.60;6.93;;;;;;;15.16;100.00;99153.63;4898209;29;20541;-70
2021/08/12 04:31:18;;;;;;;9.88;7.18;;;;;;;15.25;99.87;99155.09;4898435;29;20025;-78
2021/08/12 04:33:43;;;;;;;9.80;6.63;;;;;;;15.40;99.03;99156.38;4897377;29;20088;-76
2021/08/12 04:36:09;;;;;;;10.75;6.40;;;;;;;15.48;98.65;99154.38;4896802;29;20102;-75
2021/08/12 04:38:34;;;;;;;13.07;7.22;;;;;;;15.54;98.10;99153.34;4898118;29;20501;-76
2021/08/12 04:41:00;;;;;;;9.02;6.63;;;;;;;15.45;98.12;99166.69;4898078;29;20103;-76
2021/08/12 04:43:26;;;;;;;9.30;6.07;;;;;;;15.51;97.83;99167.31;4897624;29;20017;-76
2021/08/12 04:45:51;;;;;;;10.95;7.30;;;;;;;15.50;97.44;99157.78;4896925;29;20107;-75
2021/08/12 04:48:16;;;;;;;9.85;6.70;;;;;;;15.51;97.64;99163.88;4897656;29;20055;-76
2021/08/12 04:50:43;;;;;;;10.73;6.60;;;;;;;15.55;97.25;99165.47;4897782;29;20513;-76
2021/08/12 04:53:08;;;;;;;6.97;6.18;;;;;;;15.55;97.00;99171.56;4897510;29;20089;-76
2021/08/12 04:55:33;;;;;;;8.35;6.93;;;;;;;15.65;96.52;99167.78;4897721;29;20028;-76
2021/08/12 04:57:59;;;;;;;13.10;7.25;;;;;;;15.79;95.89;99158.63;4897546;29;20025;-76
2021/08/12 05:00:24;;;;;;;9.63;6.63;;;;;;;15.88;95.27;99159.19;4897488;29;20103;-76
2021/08/12 05:02:50;;;;;;;10.68;6.63;;;;;;;15.86;95.44;99154.94;4898515;29;20463;-76
2021/08/12 05:05:15;;;;;;;8.60;6.30;;;;;;;15.99;94.94;99150.97;4897359;29;20051;-76
2021/08/12 05:07:41;;;;;;;6.93;5.75;;;;;;;16.12;94.58;99162.72;4897656;29;20079;-76
2021/08/12 05:10:07;;;;;;;9.93;6.10;;;;;;;16.44;93.05;99152.91;4897260;29;20493;-75
2021/08/12 05:12:32;;;;;;;9.88;6.20;;;;;;;16.52;92.77;99155.25;4897359;29;20100;-76
2021/08/12 05:14:58;;;;;;;10.48;6.00;;;;;;;16.44;92.26;99147.69;4897310;29;20399;-76
2021/08/12 05:17:25;;;;;;;9.63;6.22;;;;;;;16.32;92.88;99153.34;4897063;29;20525;-76
2021/08/12 05:19:50;;;;;;;9.18;5.85;;;;;;;16.37;93.00;99146.19;4897111;29;20033;-76
2021/08/12 05:22:19;;;;;;;11.75;5.35;;;;;;;16.42;93.16;99154.72;4897053;29;20394;-76
2021/08/12 05:24:44;;;;;;;9.60;5.97;;;;;;;16.45;92.70;99146.78;4897246;29;20061;-76
2021/08/12 05:27:10;;;;;;;14.20;6.00;;;;;;;16.54;91.78;99149.06;4895842;29;20060;-76
2021/08/12 05:29:35;;;;;;;11.25;5.90;;;;;;;16.67;91.12;99152.06;4897087;29;20394;-76
2021/08/12 05:32:01;;;;;;;7.97;5.97;;;;;;;16.77;90.97;99147.38;4897639;29;20031;-75
2021/08/12 05:34:26;;;;;;;11.98;6.55;;;;;;;16.73;90.54;99158.88;4896959;29;20398;-76
2021/08/12 05:36:51;;;;;;;9.05;5.82;;;;;;;16.82;90.88;99153.28;4896944;29;20024;-76
2021/08/12 05:39:16;;;;;;;13.48;6.05;;;;;;;16.57;91.67;99159.41;4897137;29;20116;-76
2021/08/12 05:41:42;;;;;;;8.55;5.88;;;;;;;16.49;92.16;99166.69;4896860;29;20051;-76
2021/08/12 05:44:07;;;;;;;12.30;6.53;;;;;;;16.50;92.34;99168.38;4896844;29;20025;-76
2021/08/12 05:46:32;;;;;;;7.90;6.18;;;;;;;16.59;91.99;99168.06;4896666;29;20171;-76
2021/08/12 05:48:58;;;;;;;7.15;6.22;;;;;;;16.41;92.55;99173.94;4897201;29;20035;-75
2021/08/12 05:51:23;;;;;;;11.02;6.72;;;;;;;16.42;92.53;99173.03;4895413;29;20056;-76
2021/08/12 05:53:48;;;;;;;8.38;6.00;;;;;;;16.55;92.41;99171.69;4896845;29;20100;-75
2021/08/12 05:56:14;;;;;;;10.18;5.95;;;;;;;16.98;91.00;99179.78;4897081;29;20028;-76
2021/08/12 05:58:39;;;;;;;13.55;7.00;;;;;;;17.29;89.50;99179.44;4900851;29;20084;-76
2021/08/12 06:01:07;;;;;;;9.98;5.93;;;;;;;17.50;87.46;99183.81;4900480;29;20393;-76
2021/08/12 06:03:33;;;;;;;12.10;6.07;;;;;;;17.98;85.97;99175.75;4901458;29;20032;-76
2021/08/12 06:05:59;;;;;;;10.93;5.78;;;;;;;17.94;85.34;99178.59;4900485;29;20115;-76
2021/08/12 06:08:24;;;;;;;8.45;5.63;;;;;;;18.03;84.62;99183.44;4915294;29;20112;-76
2021/08/12 06:10:50;;;;;;;8.13;5.68;;;;;;;18.46;83.37;99181.59;4899363;29;20095;-76
2021/08/12 06:13:15;;;;;;;9.35;5.68;;;;;;;18.96;81.16;99186.44;4899309;29;20025;-76
2021/08/12 06:15:40;;;;;;;7.55;5.53;;;;;;;18.84;80.69;99181.72;4900216;29;20035;-76
2021/08/12 06:18:08;;;;;;;8.57;4.95;;;;;;;18.98;79.77;99184.56;4900386;29;20033;-77
2021/08/12 06:20:33;;;;;;;7.95;5.53;;;;;;;18.72;80.83;99191.84;4900482;29;20036;-76
2021/08/12 06:23:00;;;;;;;8.50;5.38;;;;;;;18.47;82.43;99191.22;4900199;29;20024;-76
2021/08/12 06:25:25;;;;;;;11.10;5.25;;;;;;;18.36;83.54;99180.31;4900384;29;20115;-76
2021/08/12 06:27:51;;;;;;;7.00;5.43;;;;;;;18.33;83.88;99190.94;4900284;29;20120;-77
2021/08/12 06:30:17;;;;;;;7.60;5.07;;;;;;;18.33;84.51;99185.72;4900124;29;20021;-76
2021/08/12 06:32:43;;;;;;;9.80;5.93;;;;;;;18.43;84.15;99177.38;4900876;29;20035;-76
2021/08/12 06:35:11;;;;;;;14.10;5.68;;;;;;;18.33;84.44;99168.19;4900018;29;20032;-76
2021/08/12 06:37:45;;;;;;;7.43;5.75;;;;;;;18.52;82.61;99165.63;4900283;29;20039;-76
2021/08/12 06:40:13;;;;;;;8.77;6.13;;;;;;;18.46;83.19;99171.13;4900162;29;20024;-76
2021/08/12 06:42:38;;;;;;;7.63;5.75;;;;;;;18.61;82.49;99169.59;4899765;29;20025;-76
2021/08/12 06:45:05;;;;;;;7.05;5.47;;;;;;;18.68;82.43;99161.41;4899866;29;20413;-76
2021/08/12 06:47:30;;;;;;;7.85;6.22;;;;;;;18.85;81.67;99162.41;4899861;29;20032;-76
2021/08/12 06:49:55;;;;;;;8.02;5.65;;;;;;;19.12;80.69;99155.91;4900204;29;20093;-76
2021/08/12 06:52:21;;;;;;;8.50;5.75;;;;;;;19.58;78.19;99160.72;4899773;29;20521;-75
2021/08/12 06:54:46;;;;;;;11.25;5.85;;;;;;;19.91;77.00;99151.22;4899893;29;20394;-75
2021/08/12 06:57:13;;;;;;;11.75;5.95;;;;;;;20.51;73.80;99146.41;4899680;29;20029;-76
2021/08/12 06:59:38;;;;;;;8.38;5.05;;;;;;;21.47;70.07;99157.91;4898370;29;20405;-70
2021/08/12 07:02:04;;;;;;;9.05;5.68;;;;;;;22.50;67.17;99147.47;4883520;29;20149;-71
2021/08/12 07:04:29;;;;;;;8.07;4.75;;;;;;;24.64;59.99;99152.06;4899307;29;20056;-69
2021/08/12 07:06:55;;;;;;;8.43;4.85;;;;;;;25.95;54.51;99148.81;4899465;29;20119;-68
2021/08/12 07:09:20;;;;;;;6.88;4.05;;;;;;;26.08;54.48;99157.56;4898560;29;20116;-69
2021/08/12 07:11:47;;;;;;;6.32;4.28;;;;;;;27.71;48.76;99165.09;4899267;29;20089;-73
2021/08/12 07:14:12;;;;;;;8.15;4.68;;;;;;;28.52;46.15;99162.75;4899442;29;20032;-73
2021/08/12 07:16:38;;;;;;;9.65;4.90;;;;;;;28.96;45.58;99155.38;4899322;29;20040;-69
2021/08/12 07:19:03;;;;;;;7.15;4.45;;;;;;;29.45;45.61;99163.41;4899179;29;20056;-69
2021/08/12 07:21:28;;;;;;;10.63;5.28;;;;;;;29.09;45.95;99159.50;4899036;29;20029;-69
2021/08/12 07:23:54;;;;;;;9.10;4.60;;;;;;;29.06;45.80;99158.94;4897825;29;20017;-70
2021/08/12 07:26:19;;;;;;;8.23;4.90;;;;;;;28.88;46.10;99164.91;4899010;29;20064;-69
2021/08/12 07:28:46;;;;;;;6.45;4.53;;;;;;;29.02;45.44;99170.88;4899151;29;20024;-70
2021/08/12 07:31:13;;;;;;;8.82;4.47;;;;;;;29.31;44.67;99170.97;4899172;29;20386;-70
2021/08/12 07:33:39;;;;;;;11.43;4.53;;;;;;;30.41;41.43;99172.44;4898652;29;20039;-69
2021/08/12 07:36:06;;;;;;;18.27;5.15;;;;;;;30.78;40.36;99173.50;4898969;29;20410;-70
2021/08/12 07:38:32;;;;;;;6.60;4.40;;;;;;;30.86;40.85;99173.59;4899072;29;20024;-70
2021/08/12 07:40:59;;;;;;;7.70;4.32;;;;;;;32.02;39.02;99180.13;4898957;29;20692;-70
2021/08/12 07:43:25;;;;;;;11.27;4.25;;;;;;;33.22;35.90;99164.13;4898747;29;20067;-70
2021/08/12 07:45:50;;;;;;;4.13;3.28;;;;;;;34.07;34.71;99172.03;4898804;29;20050;-70
2021/08/12 07:48:16;;;;;;;7.10;3.72;;;;;;;34.63;32.93;99170.34;4898952;29;20474;-69
2021/08/12 07:50:42;;;;;;;9.77;4.00;;;;;;;33.53;35.06;99171.63;4898884;29;20131;-70
2021/08/12 07:53:07;;;;;;;6.35;3.33;;;;;;;34.23;34.65;99147.81;4897484;29;20118;-70
2021/08/12 07:55:33;;;;;;;6.78;3.92;;;;;;;34.60;33.39;99146.44;4898558;29;20051;-70
2021/08/12 07:57:58;;;;;;;5.68;3.83;;;;;;;33.55;35.32;99140.88;4898713;29;20111;-70
2021/08/12 08:00:23;;;;;;;9.35;3.67;;;;;;;33.97;34.44;99143.47;4898674;29;20052;-70
2021/08/12 08:02:49;;;;;;;7.50;3.53;;;;;;;33.42;35.84;99152.13;4899394;29;20021;-70
2021/08/12 08:05:19;;;;;;;6.45;4.07;;;;;;;33.29;35.90;99143.66;4898494;29;20028;-70
2021/08/12 08:07:47;;;;;;;7.35;3.33;;;;;;;32.90;36.80;99138.81;4898519;29;20036;-70
2021/08/12 08:10:13;;;;;;;7.35;3.47;;;;;;;34.29;34.07;99136.41;4898383;29;20052;-70
2021/08/12 08:12:40;;;;;;;5.95;3.80;;;;;;;33.64;35.40;99147.13;4898245;29;20028;-70
2021/08/12 08:15:06;;;;;;;8.00;3.70;;;;;;;34.78;34.55;99141.69;4898316;29;20033;-70
2021/08/12 08:17:31;;;;;;;7.25;3.63;;;;;;;35.29;33.51;99142.97;4898182;29;20036;-71
2021/08/12 08:19:57;;;;;;;7.88;3.25;;;;;;;34.66;35.17;99143.06;4898148;29;20028;-78
2021/08/12 08:22:24;;;;;;;5.03;3.20;;;;;;;36.19;30.99;99144.22;4897885;29;20037;-78
2021/08/12 08:24:50;;;;;;;8.05;3.20;;;;;;;35.03;33.50;99134.38;4898228;29;20044;-76
2021/08/12 08:27:15;;;;;;;13.38;3.38;;;;;;;35.13;33.00;99134.16;4898229;29;20029;-70
2021/08/12 08:29:40;;;;;;;6.10;3.47;;;;;;;34.48;33.88;99130.66;4898090;29;20506;-70
2021/08/12 08:32:06;;;;;;;4.38;3.47;;;;;;;35.34;32.83;99131.66;4898747;29;20024;-70
2021/08/12 08:34:32;;;;;;;5.10;3.13;;;;;;;35.31;32.14;99132.03;4897944;29;20032;-70
2021/08/12 08:36:57;;;;;;;8.88;3.38;;;;;;;36.56;30.72;99137.16;4896115;29;20024;-68
2021/08/12 08:39:22;;;;;;;6.93;2.80;;;;;;;37.51;28.96;99131.72;4894980;29;20041;-68
2021/08/12 08:41:48;;;;;;;5.20;3.28;;;;;;;36.71;30.25;99127.19;4897673;29;20478;-68
2021/08/12 08:44:17;;;;;;;5.50;3.08;;;;;;;37.58;28.97;99123.69;4897676;29;20108;-67
2021/08/12 08:46:45;;;;;;;6.43;3.35;;;;;;;35.44;32.62;99126.03;4897907;29;20506;-68
2021/08/12 08:49:11;;;;;;;3.88;2.92;;;;;;;35.99;32.06;99125.84;4897757;29;20059;-68
2021/08/12 08:51:37;;;;;;;7.15;3.60;;;;;;;37.25;29.70;99111.47;4897552;29;20048;-68
2021/08/12 08:54:04;;;;;;;5.35;2.65;;;;;;;36.90;30.56;99113.13;4897688;29;20035;-68
2021/08/12 08:56:29;;;;;;;10.68;4.03;;;;;;;37.17;29.65;99113.44;4897564;29;20036;-69
2021/08/12 08:58:55;;;;;;;6.93;3.47;;;;;;;36.10;31.02;99118.34;4897544;29;20367;-68
2021/08/12 09:01:20;;;;;;;7.22;3.25;;;;;;;36.70;30.98;99120.09;4897514;29;20044;-68
2021/08/12 09:03:46;;;;;;;6.70;3.65;;;;;;;34.80;33.61;99123.47;4897357;29;20025;-68
2021/08/12 09:06:13;;;;;;;9.13;3.08;;;;;;;33.88;33.63;99128.31;4897342;29;20032;-70
2021/08/12 09:08:38;;;;;;;9.07;3.45;;;;;;;34.64;34.14;99119.00;4897381;29;20099;-70
2021/08/12 09:11:04;;;;;;;6.50;3.47;;;;;;;36.68;31.64;99114.03;4897299;29;20136;-70
2021/08/12 09:13:29;;;;;;;5.78;3.17;;;;;;;37.05;29.76;99118.50;4897375;29;20080;-71
2021/08/12 09:15:55;;;;;;;8.05;3.50;;;;;;;35.36;32.33;99118.88;4897134;29;20044;-70
2021/08/12 09:18:22;;;;;;;6.57;3.35;;;;;;;35.50;32.26;99115.44;4897270;29;20031;-67
2021/08/12 09:20:51;;;;;;;9.18;3.20;;;;;;;33.61;34.79;99117.91;4897401;29;20028;-67
2021/08/12 09:23:25;;;;;;;5.75;2.78;;;;;;;36.52;30.09;99109.69;4896865;29;20143;-67
2021/08/12 09:25:50;;;;;;;7.28;3.35;;;;;;;35.64;32.78;99115.69;4897290;29;20413;-67
2021/08/12 09:28:24;;;;;;;6.07;3.15;;;;;;;36.13;31.76;99118.81;4896807;29;20025;-68
2021/08/12 09:30:59;;;;;;;5.15;3.25;;;;;;;36.88;30.86;99098.94;4896285;29;20112;-68
2021/08/12 09:33:40;;;;;;;5.50;3.35;;;;;;;35.95;32.47;99094.88;4894802;29;20028;-68
2021/08/12 09:36:28;;;;;;;5.35;3.03;;;;;;;36.12;31.27;99102.78;4876602;29;20446;-68
2021/08/12 09:39:09;;;;;;;7.40;3.05;;;;;;;36.84;31.47;99096.78;4876384;29;20439;-68
2021/08/12 09:41:49;;;;;;;9.18;3.28;;;;;;;36.44;30.32;99091.69;4898368;29;20029;-69
2021/08/12 09:44:34;;;;;;;5.10;2.42;;;;;;;37.58;29.85;99088.53;4876519;29;20084;-69
2021/08/12 09:47:03;;;;;;;5.70;3.42;;;;;;;36.65;29.68;99087.41;4877437;29;20030;-68
2021/08/12 09:49:38;;;;;;;4.63;3.10;;;;;;;36.65;28.54;99090.09;4892322;29;20029;-68
2021/08/12 09:52:28;;;;;;;7.80;3.40;;;;;;;37.55;29.91;99087.03;4878060;29;20036;-68
2021/08/12 09:55:09;;;;;;;7.18;3.20;;;;;;;36.48;30.70;99087.59;4878392;29;20085;-68
2021/08/12 09:57:46;;;;;;;6.03;3.42;;;;;;;34.45;33.56;99087.94;4878207;29;20025;-68
2021/08/12 10:00:34;;;;;;;10.82;3.63;;;;;;;36.48;29.30;99079.50;4878189;29;20395;-67
2021/08/12 10:03:00;;;;;;;;;;;;;;;36.28;31.04;99086.44;4892862;29;20389;-68
2021/08/12 10:05:26;;;;;;;5.72;3.10;;;;;;;36.77;28.88;99085.91;4896567;29;19916;-68
2021/08/12 10:07:53;;;;;;;5.35;3.10;;;;;;;36.43;28.86;99084.63;4896746;29;20036;-68
2021/08/12 10:10:24;;;;;;;7.50;3.13;;;;;;;37.64;27.74;99087.75;4896580;29;20028;-68
2021/08/12 10:12:54;;;;;;;3.55;3.13;;;;;;;37.89;28.94;99086.34;4896458;29;20367;-68
2021/08/12 10:15:33;;;;;;;5.38;3.22;;;;;;;36.70;28.04;99079.56;4896255;29;20020;-68
2021/08/12 10:18:03;;;;;;;7.13;3.15;;;;;;;35.77;30.02;99083.53;4896486;29;20115;-69
2021/08/12 10:20:31;;;;;;;4.15;3.38;;;;;;;35.51;30.11;99081.22;4896487;29;20453;-67
2021/08/12 10:22:59;;;;;;;6.40;3.45;;;;;;;35.80;30.09;99077.78;4896126;29;20028;-67
2021/08/12 10:25:25;;;;;;;;;;;;;;;36.72;29.68;99080.25;4896718;29;20124;-67
2021/08/12 10:27:54;;;;;;;4.53;3.38;;;;;;;35.21;31.87;99077.53;4896295;29;20325;-68
2021/08/12 10:30:21;;;;;;;9.38;3.47;;;;;;;34.17;33.57;99078.56;4896433;29;20032;-67
2021/08/12 10:32:59;;;;;;;8.17;4.17;;;;;;;34.18;33.63;99074.84;4896293;29;20031;-68
2021/08/12 10:35:27;;;;;;;4.47;2.93;;;;;;;34.89;33.36;99073.97;4953445;23;20106;-74
2021/08/12 10:37:54;;;;;;;11.90;3.33;;;;;;;34.77;32.76;99072.69;4934315;29;20270;-74
2021/08/12 10:40:21;;;;;;;4.90;3.25;;;;;;;36.22;31.49;99079.94;4932838;29;20027;-72
2021/08/12 10:42:48;;;;;;;9.32;3.55;;;;;;;37.26;29.89;99069.88;4935174;29;20092;-72
2021/08/12 10:45:19;;;;;;;8.88;3.88;;;;;;;37.83;27.81;99072.72;4922391;29;20469;-72
2021/08/12 10:47:55;;;;;;;4.50;3.25;;;;;;;38.24;28.42;99079.09;4918881;29;20028;-74
2021/08/12 10:50:24;;;;;;;8.23;3.85;;;;;;;37.79;28.21;99072.28;4918731;29;20028;-73
2021/08/12 10:53:01;;;;;;;;;;;;;;;38.79;26.62;99065.69;4919077;29;20056;-78
2021/08/12 10:55:27;;;;;;;17.00;3.90;;;;;;;36.52;29.57;99059.22;4933174;29;19911;-72
2021/08/12 10:58:18;;;;;;;7.13;3.08;;;;;;;38.30;28.04;99062.09;4918640;29;20167;-78
2021/08/12 11:00:56;;;;;;;5.38;3.08;;;;;;;36.26;28.96;99062.31;4918288;29;20028;-72
2021/08/12 11:03:34;;;;;;;9.68;3.40;;;;;;;37.83;27.45;99049.22;4909951;29;20119;-70
2021/08/12 11:06:00;;;;;;;4.50;3.42;;;;;;;37.43;28.16;99059.69;4899982;29;20111;-70
2021/08/12 11:08:48;;;;;;;6.55;3.42;;;;;;;38.46;27.50;99049.25;4899644;29;20024;-73
2021/08/12 11:11:14;;;;;;;;;;;;;;;38.43;26.99;99041.53;4899727;29;20088;-72
2021/08/12 11:13:40;;;;;;;12.10;3.22;;;;;;;38.00;26.43;99050.59;4899362;29;20322;-72
2021/08/12 11:16:06;;;;;;;5.90;3.30;;;;;;;38.43;27.23;99045.06;4899439;29;20021;-71
2021/08/12 11:18:51;;;;;;;6.20;3.30;;;;;;;38.17;26.62;99040.31;4897952;29;20371;-71
2021/08/12 11:21:40;;;;;;;4.38;3.20;;;;;;;37.85;27.23;99044.47;4913143;29;20056;-71
2021/08/12 11:24:24;;;;;;;4.93;3.30;;;;;;;35.29;30.31;99042.41;4917976;29;20035;-71
2021/08/12 11:26:50;;;;;;;5.40;3.15;;;;;;;35.90;31.20;99039.75;4916837;29;20477;-72
2021/08/12 11:29:22;;;;;;;3.53;3.08;;;;;;;36.33;29.22;99035.44;4906859;29;20077;-72
2021/08/12 11:31:47;;;;;;;8.18;3.30;;;;;;;36.70;30.08;99034.53;4908318;29;20036;-72
2021/08/12 11:34:42;;;;;;;3.93;3.43;;;;;;;37.44;27.61;99034.31;4903614;29;20028;-73
2021/08/12 11:37:19;;;;;;;8.52;3.80;;;;;;;38.05;27.74;99047.31;4907024;29;20036;-72
2021/08/12 11:40:03;;;;;;;12.83;3.73;;;;;;;38.10;26.70;99039.44;4916655;29;20028;-72
2021/08/12 11:42:43;;;;;;;5.20;4.18;;;;;;;38.03;26.87;99036.69;4912453;29;20028;-76
2021/08/12 11:45:17;;;;;;;11.32;5.63;;;;;;;37.25;27.87;99040.34;4917833;29;20057;-71
2021/08/12 11:47:44;;;;;;;5.50;3.88;;;;;;;37.66;26.98;99031.59;4917686;29;20401;-70
2021/08/12 11:50:12;;;;;;;5.13;3.70;;;;;;;35.88;29.62;99037.25;4917648;29;20079;-70
2021/08/12 11:52:41;;;;;;;7.10;3.88;;;;;;;37.58;27.14;99029.88;4917454;29;20087;-71
2021/08/12 11:55:11;;;;;;;5.90;4.15;;;;;;;38.50;25.48;99024.28;4916994;29;20056;-76
2021/08/12 11:57:39;;;;;;;6.70;3.88;;;;;;;37.03;27.88;99028.66;4917690;29;20498;-76
2021/08/12 12:00:13;;;;;;;7.68;4.45;;;;;;;35.62;29.15;99026.03;4917562;29;20106;-77
2021/08/12 12:02:46;;;;;;;6.50;4.10;;;;;;;33.08;33.41;99033.16;4909147;29;20073;-73
2021/08/12 12:05:12;;;;;;;5.38;4.07;;;;;;;32.62;35.13;99032.66;4904883;29;20029;-73
2021/08/12 12:07:57;;;;;;;6.28;4.25;;;;;;;32.33;35.47;99036.50;4898275;29;20381;-70
2021/08/12 12:10:24;;;;;;;6.68;4.10;;;;;;;33.22;33.08;99033.34;4898459;29;20577;-70
2021/08/12 12:12:49;;;;;;;4.65;4.25;;;;;;;32.65;34.61;99027.81;4898102;29;20107;-70
2021/08/12 12:15:34;;;;;;;4.90;4.28;;;;;;;32.12;35.52;99030.72;4898285;29;20503;-70
2021/08/12 12:18:00;;;;;;;5.22;4.35;;;;;;;32.17;36.68;99031.06;4898130;29;20150;-70
2021/08/12 12:20:26;;;;;;;5.07;4.18;;;;;;;33.16;35.74;99020.56;4907168;29;20119;-71
2021/08/12 12:22:59;;;;;;;9.77;4.70;;;;;;;33.52;33.94;99016.78;4908760;29;20039;-70
2021/08/12 12:25:25;;;;;;;12.35;5.03;;;;;;;33.18;34.41;99013.19;4917084;29;20052;-71
2021/08/12 12:27:51;;;;;;;6.35;4.97;;;;;;;32.81;34.41;99013.59;4916991;29;20035;-72
2021/08/12 12:30:17;;;;;;;8.02;4.47;;;;;;;32.14;34.64;99023.34;4916252;29;20028;-71
2021/08/12 12:32:44;;;;;;;8.43;4.85;;;;;;;31.97;36.64;99015.22;4914990;29;20393;-73
2021/08/12 12:35:11;;;;;;;6.38;4.30;;;;;;;31.85;36.04;99019.13;4909754;29;20039;-71
2021/08/12 12:37:39;;;;;;;6.75;4.15;;;;;;;32.45;35.32;99021.03;4916504;29;20032;-72
2021/08/12 12:40:08;;;;;;;8.20;4.60;;;;;;;32.71;34.59;99016.41;4916062;29;20026;-71
2021/08/12 12:42:36;;;;;;;7.75;4.80;;;;;;;32.80;33.14;99019.13;4916349;29;20119;-76
2021/08/12 12:45:06;;;;;;;5.60;4.93;;;;;;;32.08;33.84;99018.63;4916550;29;20497;-73
2021/08/12 12:47:33;;;;;;;7.93;4.80;;;;;;;32.13;34.47;99018.97;4916518;29;20039;-73
2021/08/12 12:50:06;;;;;;;5.93;4.55;;;;;;;31.89;33.75;99015.16;4916651;29;20039;-73
2021/08/12 12:52:31;;;;;;;6.70;4.35;;;;;;;31.90;34.72;99013.31;4916262;29;20032;-70
2021/08/12 12:54:58;;;;;;;6.40;4.75;;;;;;;31.89;34.26;99007.09;4915178;29;20095;-70
2021/08/12 12:57:32;;;;;;;5.40;4.70;;;;;;;31.28;34.76;99020.47;4916377;29;20032;-71
2021/08/12 12:59:57;;;;;;;5.70;4.25;;;;;;;31.98;32.54;99014.19;4916421;29;20477;-71
2021/08/12 13:02:22;;;;;;;5.05;4.53;;;;;;;32.28;32.18;99012.00;4910248;29;20043;-73
2021/08/12 13:05:00;;;;;;;4.97;4.50;;;;;;;32.29;32.14;99010.16;4905014;29;20028;-71
2021/08/12 13:07:26;;;;;;;6.27;4.97;;;;;;;31.71;32.21;99007.09;4896542;29;20115;-73
2021/08/12 13:09:52;;;;;;;5.82;4.75;;;;;;;32.24;30.72;99005.28;4897280;29;20107;-71
2021/08/12 13:12:28;;;;;;;6.18;4.40;;;;;;;31.53;32.31;99008.16;4896863;29;20478;-73
2021/08/12 13:15:12;;;;;;;5.25;4.38;;;;;;;32.01;30.36;99004.16;4897092;29;20031;-77
2021/08/12 13:17:37;;;;;;;10.57;4.72;;;;;;;31.96;30.93;99005.50;4897128;29;20040;-77
2021/08/12 13:20:11;;;;;;;10.63;4.78;;;;;;;32.04;32.14;99001.16;4901557;29;20028;-71
2021/08/12 13:22:48;;;;;;;6.20;4.30;;;;;;;31.98;30.69;99000.78;4915611;29;20027;-72
2021/08/12 13:25:15;;;;;;;9.65;4.82;;;;;;;31.67;30.50;99004.91;4914649;29;20040;-72
2021/08/12 13:27:46;;;;;;;5.15;4.13;;;;;;;32.08;31.46;99002.53;4914633;29;20032;-72
2021/08/12 13:30:13;;;;;;;5.90;4.30;;;;;;;31.74;30.92;98995.25;4915994;29;20031;-76
2021/08/12 13:32:38;;;;;;;6.22;4.50;;;;;;;31.60;31.09;98990.47;4907679;29;20032;-71
2021/08/12 13:35:04;;;;;;;6.43;4.80;;;;;;;31.71;31.19;98990.19;4904253;29;20088;-77
2021/08/12 13:37:29;;;;;;;7.05;4.85;;;;;;;31.88;31.12;98991.19;4897114;29;20040;-73
2021/08/12 13:39:55;;;;;;;6.70;4.65;;;;;;;31.68;30.44;98986.00;4896966;29;20084;-72
2021/08/12 13:42:21;;;;;;;6.22;4.72;;;;;;;31.86;30.28;98988.66;4896691;29;20073;-71
2021/08/12 13:44:46;;;;;;;7.00;4.50;;;;;;;31.45;30.56;98996.38;4896746;29;20024;-72
2021/08/12 13:47:12;;;;;;;5.68;4.50;;;;;;;31.07;31.09;98994.00;4896841;29;20028;-70
2021/08/12 13:49:37;;;;;;;6.05;4.85;;;;;;;31.13;31.47;98988.03;4897773;29;20024;-70
2021/08/12 13:52:05;;;;;;;6.15;4.20;;;;;;;31.60;30.11;98988.63;4915412;29;20032;-72
2021/08/12 13:54:30;;;;;;;6.13;4.40;;;;;;;31.63;29.49;98980.28;4915694;29;20024;-78
2021/08/12 13:56:56;;;;;;;4.90;4.40;;;;;;;31.56;29.53;98978.38;4915676;29;20107;-70
2021/08/12 13:59:22;;;;;;;6.57;4.43;;;;;;;31.78;30.18;98985.06;4915520;29;20035;-70
2021/08/12 14:01:49;;;;;;;9.27;4.75;;;;;;;32.13;30.80;98978.75;4912773;29;20025;-76
2021/08/12 14:04:14;;;;;;;7.95;4.70;;;;;;;32.17;30.79;98982.81;4904183;29;20506;-76
2021/08/12 14:06:40;;;;;;;8.18;5.07;;;;;;;32.10;32.62;98979.91;4896672;29;20041;-76
2021/08/12 14:09:06;;;;;;;8.40;4.68;;;;;;;31.60;32.86;98979.75;4896655;29;20025;-70
2021/08/12 14:11:32;;;;;;;5.03;4.30;;;;;;;32.20;32.16;98975.28;4896550;29;20031;-72
2021/08/12 14:13:58;;;;;;;6.97;4.80;;;;;;;32.44;30.94;98974.53;4896545;29;20280;-76
2021/08/12 14:16:24;;;;;;;7.95;4.97;;;;;;;32.51;30.01;98985.50;4896614;29;20513;-70
2021/08/12 14:18:49;;;;;;;7.88;4.40;;;;;;;32.33;30.22;98990.91;4898095;29;20541;-71
2021/08/12 14:21:16;;;;;;;6.00;4.80;;;;;;;32.09;31.19;98980.06;4913755;29;20051;-71
2021/08/12 14:23:43;;;;;;;8.68;4.57;;;;;;;31.30;31.89;98983.69;4917870;29;20393;-76
2021/08/12 14:26:09;;;;;;;5.97;4.57;;;;;;;30.33;33.12;98981.63;4919057;29;20028;-72
2021/08/12 14:28:35;;;;;;;6.50;4.88;;;;;;;30.65;32.90;98981.16;4919134;29;20027;-72
2021/08/12 14:31:03;;;;;;;9.68;6.25;;;;;;;31.28;32.46;98975.81;4918976;29;20035;-70
2021/08/12 14:33:30;;;;;;;8.60;4.60;;;;;;;31.57;29.93;98972.84;4910695;29;20115;-72
2021/08/12 14:36:00;;;;;;;7.22;4.40;;;;;;;30.89;31.63;98973.41;4900742;29;20020;-72
2021/08/12 14:38:26;;;;;;;7.00;4.78;;;;;;;30.92;30.59;98967.75;4900240;29;20505;-72
2021/08/12 14:40:51;;;;;;;4.80;4.22;;;;;;;31.54;30.24;98966.97;4900031;29;20036;-72
2021/08/12 14:43:17;;;;;;;12.00;4.95;;;;;;;31.88;29.05;98965.22;4899810;29;20036;-70
2021/08/12 14:45:42;;;;;;;6.32;4.97;;;;;;;32.26;28.24;98955.03;4900015;29;20035;-72
2021/08/12 14:48:07;;;;;;;6.95;5.00;;;;;;;31.99;29.05;98958.75;4899895;29;20025;-72
2021/08/12 14:50:33;;;;;;;5.93;4.55;;;;;;;32.23;29.06;98958.00;4908246;29;20038;-72
2021/08/12 14:52:58;;;;;;;7.60;4.88;;;;;;;32.12;28.88;98955.63;4918661;29;20554;-76
2021/08/12 14:55:23;;;;;;;5.90;4.80;;;;;;;32.18;28.37;98949.63;4917276;29;20025;-71
2021/08/12 14:57:49;;;;;;;7.88;4.72;;;;;;;32.12;27.98;98961.00;4918675;29;20032;-74
2021/08/12 15:00:15;;;;;;;7.13;5.00;;;;;;;30.54;30.56;98957.28;4918622;29;20031;-76
2021/08/12 15:02:40;;;;;;;5.82;4.50;;;;;;;30.60;30.54;98954.00;4910245;29;20427;-70
2021/08/12 15:05:06;;;;;;;8.00;4.75;;;;;;;31.24;30.64;98950.31;4906706;29;20096;-72
2021/08/12 15:07:32;;;;;;;4.93;4.10;;;;;;;30.90;29.98;98953.69;4899503;29;20079;-72
2021/08/12 15:09:58;;;;;;;6.55;4.90;;;;;;;30.85;30.31;98944.41;4899414;29;20099;-72
2021/08/12 15:12:23;;;;;;;6.70;4.88;;;;;;;30.80;30.70;98947.59;4899619;29;20028;-72
2021/08/12 15:14:48;;;;;;;11.73;4.82;;;;;;;30.86;30.86;98941.63;4899370;29;20035;-72
2021/08/12 15:17:14;;;;;;;6.07;4.88;;;;;;;31.02;30.64;98945.44;4899310;29;20438;-72
2021/08/12 15:19:40;;;;;;;9.27;4.45;;;;;;;31.81;30.38;98941.84;4900577;29;20537;-73
2021/08/12 15:22:06;;;;;;;5.03;4.53;;;;;;;31.73;29.99;98939.97;4917926;29;20028;-71
2021/08/12 15:24:31;;;;;;;6.38;4.95;;;;;;;31.18;29.20;98954.44;4918053;29;20036;-73
2021/08/12 15:26:57;;;;;;;5.82;4.63;;;;;;;31.51;29.29;98946.69;4917956;29;20429;-70
2021/08/12 15:29:22;;;;;;;6.45;4.60;;;;;;;31.41;30.01;98941.44;4917234;29;20028;-71
2021/08/12 15:31:47;;;;;;;5.32;4.82;;;;;;;31.66;30.56;98934.38;4916356;29;20554;-76
2021/08/12 15:34:13;;;;;;;8.15;4.55;;;;;;;31.07;30.98;98937.78;4906669;29;20080;-72
2021/08/12 15:36:38;;;;;;;5.13;4.63;;;;;;;30.90;31.13;98934.97;4899101;29;20076;-71
2021/08/12 15:39:04;;;;;;;8.77;4.80;;;;;;;30.97;31.15;98938.69;4897731;29;20028;-73
2021/08/12 15:41:29;;;;;;;7.55;5.13;;;;;;;30.76;31.60;98929.31;4898961;29;20032;-71
2021/08/12 15:43:54;;;;;;;7.50;4.75;;;;;;;31.42;30.98;98929.72;4898694;29;20029;-76
2021/08/12 15:46:21;;;;;;;5.30;4.38;;;;;;;30.88;31.42;98931.59;4898956;29;20034;-76
2021/08/12 15:48:47;;;;;;;6.50;5.03;;;;;;;30.64;31.75;98925.97;4898797;29;20153;-73
2021/08/12 15:51:14;;;;;;;7.95;4.60;;;;;;;30.25;31.15;98922.69;4912203;29;20413;-76
2021/08/12 15:53:40;;;;;;;6.00;4.68;;;;;;;30.99;31.14;98914.44;4917620;29;20032;-73